Time;durP1;ratioP1;P1;durP2;ratioP2;P2;SDS_P1;SDS_P2;PMS_P1;PMS_P2;Temp;Humidity;BMP_temperature;BMP_pressure;BME280_temperature;BME280_humidity;BME280_pressure;Samples;Min_cycle;Max_cycle;Signal;HPM_P1;HPM_P2
2023/04/04 00:01:29;;;;;;;12.37;5.63;;;;;;;;;;10547512;28;20036;-89
2023/04/04 00:06:30;;;;;;;14.10;6.17;;;;;;;;;;10556255;28;20078;-86
2023/04/04 00:11:32;;;;;;;12.13;6.73;;;;;;;;;;10537121;28;20456;-88
2023/04/04 00:16:33;;;;;;;10.43;5.23;;;;;;;;;;10553537;28;20043;-89
2023/04/04 00:21:35;;;;;;;15.57;6.73;;;;;;;;;;10568880;28;20865;-88
2023/04/04 00:26:36;;;;;;;15.10;6.70;;;;;;;;;;10514148;28;20138;-87
2023/04/04 00:31:37;;;;;;;13.17;5.63;;;;;;;;;;10561877;28;20039;-88
2023/04/04 00:36:38;;;;;;;10.53;4.80;;;;;;;;;;10554457;28;20041;-88
2023/04/04 00:41:39;;;;;;;13.57;5.73;;;;;;;;;;10556196;28;20035;-89
2023/04/04 00:46:40;;;;;;;11.60;5.80;;;;;;;;;;10554354;28;20391;-87
2023/04/04 00:51:41;;;;;;;12.67;5.77;;;;;;;;;;10549676;28;20044;-89
2023/04/04 00:56:42;;;;;;;14.73;6.53;;;;;;;;;;10550455;28;20047;-90
2023/04/04 01:01:43;;;;;;;16.03;6.80;;;;;;;;;;10549556;28;20367;-88
2023/04/04 01:06:45;;;;;;;17.13;6.80;;;;;;;;;;10539358;28;20063;-88
2023/04/04 01:11:46;;;;;;;16.00;6.43;;;;;;;;;;10536471;28;20062;-88
2023/04/04 01:16:48;;;;;;;12.20;6.07;;;;;;;;;;10556767;28;20035;-88
2023/04/04 01:21:50;;;;;;;12.37;5.80;;;;;;;;;;10551109;28;20435;-88
2023/04/04 01:26:51;;;;;;;14.63;7.60;;;;;;;;;;10549489;28;20043;-88
2023/04/04 01:32:12;;;;;;;14.13;6.10;;;;;;;;;;10552465;28;20035;-89
2023/04/04 01:37:16;;;;;;;13.40;5.93;;;;;;;;;;10558697;28;20023;-88
2023/04/04 01:42:18;;;;;;;15.47;6.10;;;;;;;;;;10553040;28;20056;-91
2023/04/04 01:47:19;;;;;;;15.63;6.90;;;;;;;;;;10545975;28;20035;-90
2023/04/04 01:52:21;;;;;;;14.07;6.40;;;;;;;;;;10559217;28;20642;-89
2023/04/04 01:57:22;;;;;;;14.90;6.87;;;;;;;;;;10554041;28;20886;-90
2023/04/04 02:02:23;;;;;;;13.97;5.67;;;;;;;;;;10540379;28;20038;-89
2023/04/04 02:07:24;;;;;;;19.53;6.43;;;;;;;;;;10537951;28;20551;-90
2023/04/04 02:12:25;;;;;;;16.87;6.67;;;;;;;;;;10567316;28;20031;-90
2023/04/04 02:17:27;;;;;;;16.73;6.67;;;;;;;;;;10540544;28;20092;-90
2023/04/04 02:22:28;;;;;;;20.23;6.73;;;;;;;;;;10550464;28;20063;-90
2023/04/04 02:27:29;;;;;;;16.50;7.03;;;;;;;;;;10544899;28;20038;-89
2023/04/04 02:32:30;;;;;;;15.97;6.97;;;;;;;;;;10545401;28;20034;-89
2023/04/04 02:37:31;;;;;;;13.73;6.40;;;;;;;;;;10546069;28;20120;-89
2023/04/04 02:42:32;;;;;;;16.53;6.50;;;;;;;;;;10547950;28;20024;-90
2023/04/04 02:47:33;;;;;;;14.60;6.40;;;;;;;;;;10548641;28;20039;-90
2023/04/04 02:52:35;;;;;;;15.20;6.77;;;;;;;;;;10551062;28;20065;-89
2023/04/04 02:57:36;;;;;;;14.23;5.63;;;;;;;;;;10543845;28;20139;-90
2023/04/04 03:02:40;;;;;;;16.93;6.37;;;;;;;;;;10546295;28;20040;-91
2023/04/04 03:07:42;;;;;;;15.60;6.23;;;;;;;;;;10551820;28;20032;-90
2023/04/04 03:12:43;;;;;;;16.97;6.17;;;;;;;;;;10546138;28;20170;-92
2023/04/04 03:17:44;;;;;;;13.60;6.40;;;;;;;;;;10535144;28;20057;-90
2023/04/04 03:22:45;;;;;;;14.97;6.57;;;;;;;;;;10557312;28;20032;-89
2023/04/04 03:27:46;;;;;;;15.90;6.70;;;;;;;;;;10549267;28;20071;-86
2023/04/04 03:32:49;;;;;;;16.67;7.13;;;;;;;;;;10546890;28;20031;-86
2023/04/04 03:37:50;;;;;;;15.97;7.07;;;;;;;;;;10550608;28;20032;-85
2023/04/04 03:42:51;;;;;;;18.57;7.63;;;;;;;;;;10544908;28;20140;-86
2023/04/04 03:47:53;;;;;;;14.80;6.63;;;;;;;;;;10535794;28;20040;-88
2023/04/04 03:52:54;;;;;;;15.70;6.87;;;;;;;;;;10520141;28;20539;-85
2023/04/04 03:57:55;;;;;;;15.10;6.77;;;;;;;;;;10515773;28;20060;-87
2023/04/04 04:02:56;;;;;;;18.03;7.47;;;;;;;;;;10526041;28;20028;-87
2023/04/04 04:07:57;;;;;;;17.23;7.10;;;;;;;;;;10552560;28;20043;-86
2023/04/04 04:13:04;;;;;;;16.40;7.07;;;;;;;;;;10545350;28;20126;-89
2023/04/04 04:18:05;;;;;;;17.60;7.13;;;;;;;;;;10546995;28;20146;-89
2023/04/04 04:23:39;;;;;;;19.67;7.03;;;;;;;;;;10537264;28;20028;-92
2023/04/04 04:40:08;;;;;;;16.93;7.70;;;;;;;;;;10328847;28;20038;-91
2023/04/04 04:51:42;;;;;;;;;;;;;;;;;;;;;
2023/04/04 05:08:52;;;;;;;15.35;6.43;;;;;;;;;;10331600;28;20117;-92
2023/04/04 05:20:16;;;;;;;17.77;6.80;;;;;;;;;;10236109;29;20704;-94
2023/04/04 05:25:52;;;;;;;16.58;6.18;;;;;;;;;;10320588;28;20041;-91
2023/04/04 05:37:23;;;;;;;17.87;6.63;;;;;;;;;;10292819;28;20042;-91
2023/04/04 05:43:33;;;;;;;18.67;7.67;;;;;;;;;;10337023;28;20038;-91
2023/04/04 05:48:49;;;;;;;;;;;;;;;;;;;;;
2023/04/04 06:05:55;;;;;;;18.47;7.50;;;;;;;;;;10420694;28;20035;-91
2023/04/04 06:22:34;;;;;;;13.33;4.77;;;;;;;;;;10341518;28;20046;-92
2023/04/04 06:27:53;;;;;;;13.13;5.17;;;;;;;;;;10542847;28;20748;-92
2023/04/04 06:32:59;;;;;;;13.30;5.43;;;;;;;;;;10549854;28;20019;-93
2023/04/04 06:38:02;;;;;;;;;;;;;;;;;;10525755;28;20024;-90
2023/04/04 06:43:04;;;;;;;13.13;4.00;;;;;;;;;;10534959;28;19966;-91
2023/04/04 06:48:19;;;;;;;5.77;3.23;;;;;;;;;;10546339;28;20616;-92
2023/04/04 06:53:22;;;;;;;7.78;3.60;;;;;;;;;;10509865;28;20028;-92
2023/04/04 06:58:24;;;;;;;7.77;3.60;;;;;;;;;;10540734;28;20051;-91
2023/04/04 07:03:28;;;;;;;4.60;2.73;;;;;;;;;;10515804;28;20081;-92
2023/04/04 07:08:34;;;;;;;8.57;3.07;;;;;;;;;;10530431;28;20040;-90
2023/04/04 07:13:35;;;;;;;6.37;2.90;;;;;;;;;;10526204;28;20027;-90
2023/04/04 07:18:36;;;;;;;9.93;3.20;;;;;;;;;;10555349;28;20386;-91
2023/04/04 07:23:37;;;;;;;6.87;2.80;;;;;;;;;;10555349;28;20092;-91
2023/04/04 07:28:38;;;;;;;6.30;3.17;;;;;;;;;;10555011;28;20035;-88
2023/04/04 07:33:39;;;;;;;9.67;3.13;;;;;;;;;;10554620;28;20036;-90
2023/04/04 07:38:41;;;;;;;6.53;2.37;;;;;;;;;;10553951;28;20028;-89
2023/04/04 07:43:42;;;;;;;4.63;2.73;;;;;;;;;;10535120;28;20032;-89
2023/04/04 07:48:43;;;;;;;8.17;2.83;;;;;;;;;;10546910;28;20035;-88
2023/04/04 07:53:44;;;;;;;4.73;2.50;;;;;;;;;;10539906;28;20410;-87
2023/04/04 07:58:45;;;;;;;3.20;2.20;;;;;;;;;;10553599;28;20058;-89
2023/04/04 08:03:46;;;;;;;4.27;2.37;;;;;;;;;;10529446;28;20479;-87
2023/04/04 08:08:47;;;;;;;4.93;2.43;;;;;;;;;;10536454;28;20043;-88
2023/04/04 08:13:48;;;;;;;4.30;2.37;;;;;;;;;;10551585;28;20887;-89
2023/04/04 08:18:49;;;;;;;5.77;2.43;;;;;;;;;;10524111;28;20408;-87
2023/04/04 08:23:50;;;;;;;4.90;2.33;;;;;;;;;;10552120;28;20096;-88
2023/04/04 08:28:51;;;;;;;5.43;2.80;;;;;;;;;;10552448;28;20046;-89
2023/04/04 08:33:52;;;;;;;6.23;2.23;;;;;;;;;;10552604;28;20016;-89
2023/04/04 08:38:54;;;;;;;6.73;2.20;;;;;;;;;;10553210;28;20029;-89
2023/04/04 08:44:03;;;;;;;5.87;2.60;;;;;;;;;;10551551;28;20142;-89
2023/04/04 08:49:05;;;;;;;6.77;2.73;;;;;;;;;;10513974;28;20066;-86
2023/04/04 08:54:07;;;;;;;7.53;2.33;;;;;;;;;;10538741;28;20601;-86
2023/04/04 08:59:10;;;;;;;7.03;2.67;;;;;;;;;;10537858;28;20548;-86
2023/04/04 09:04:12;;;;;;;10.17;3.20;;;;;;;;;;10512251;28;20085;-86
2023/04/04 09:09:14;;;;;;;6.23;2.87;;;;;;;;;;10528231;28;20651;-88
2023/04/04 09:14:15;;;;;;;5.53;2.30;;;;;;;;;;10540087;28;20361;-85
2023/04/04 09:19:17;;;;;;;4.60;2.70;;;;;;;;;;10515454;28;20081;-87
2023/04/04 09:24:18;;;;;;;5.80;2.83;;;;;;;;;;10500391;28;20024;-90
2023/04/04 09:29:22;;;;;;;8.20;3.00;;;;;;;;;;10541352;28;20446;-89
2023/04/04 09:34:23;;;;;;;8.20;2.60;;;;;;;;;;10511725;28;20054;-90
2023/04/04 09:39:24;;;;;;;7.13;2.47;;;;;;;;;;10530588;28;20081;-90
2023/04/04 09:44:26;;;;;;;7.53;3.40;;;;;;;;;;10527767;28;20040;-87
2023/04/04 09:49:31;;;;;;;5.60;3.03;;;;;;;;;;10551812;28;20418;-87
2023/04/04 09:54:32;;;;;;;7.93;2.70;;;;;;;;;;10519488;28;20800;-88
2023/04/04 09:59:33;;;;;;;5.03;2.80;;;;;;;;;;10525018;28;20058;-87
2023/04/04 10:04:35;;;;;;;4.63;2.30;;;;;;;;;;10536107;28;20449;-86
2023/04/04 10:09:37;;;;;;;5.00;2.43;;;;;;;;;;10573646;28;20051;-86
2023/04/04 10:14:38;;;;;;;7.07;2.83;;;;;;;;;;10518871;28;20040;-89
2023/04/04 10:19:39;;;;;;;3.90;2.53;;;;;;;;;;10538228;28;20036;-87
2023/04/04 10:24:40;;;;;;;7.77;2.70;;;;;;;;;;10557520;28;20130;-86
2023/04/04 10:29:41;;;;;;;7.70;2.87;;;;;;;;;;10541935;28;20056;-87
2023/04/04 10:34:49;;;;;;;5.50;2.60;;;;;;;;;;10540097;28;20032;-87
2023/04/04 10:39:50;;;;;;;5.87;2.50;;;;;;;;;;10554974;28;20028;-87
2023/04/04 10:44:51;;;;;;;5.00;3.00;;;;;;;;;;10564472;28;20406;-87
2023/04/04 10:49:52;;;;;;;3.63;2.53;;;;;;;;;;10534690;28;20408;-88
2023/04/04 10:54:54;;;;;;;6.00;3.37;;;;;;;;;;10531248;28;20483;-87
2023/04/04 11:00:09;;;;;;;5.87;3.17;;;;;;;;;;10528843;28;20062;-89
2023/04/04 11:05:11;;;;;;;6.47;3.10;;;;;;;;;;10514123;28;20434;-91
2023/04/04 11:10:14;;;;;;;5.03;3.20;;;;;;;;;;10521633;28;20407;-90
2023/04/04 11:15:15;;;;;;;7.70;2.93;;;;;;;;;;10550879;28;20542;-90
2023/04/04 11:20:17;;;;;;;8.53;3.53;;;;;;;;;;10540835;28;20055;-89
2023/04/04 11:25:24;;;;;;;5.20;2.97;;;;;;;;;;10549152;28;20119;-89
2023/04/04 11:30:27;;;;;;;5.33;3.10;;;;;;;;;;10535070;28;20570;-87
2023/04/04 11:35:28;;;;;;;6.20;2.67;;;;;;;;;;10554622;28;20066;-88
2023/04/04 11:40:36;;;;;;;8.17;3.53;;;;;;;;;;10532028;28;20032;-87
2023/04/04 11:45:37;;;;;;;7.67;3.30;;;;;;;;;;10539101;28;20036;-84
2023/04/04 11:50:39;;;;;;;6.33;3.20;;;;;;;;;;10529129;28;20168;-87
2023/04/04 11:55:46;;;;;;;13.03;3.90;;;;;;;;;;10532205;28;20027;-89
2023/04/04 12:00:47;;;;;;;7.07;3.10;;;;;;;;;;10516791;28;20097;-88
2023/04/04 12:05:49;;;;;;;6.13;2.93;;;;;;;;;;10544815;28;20020;-89
2023/04/04 12:10:51;;;;;;;7.23;3.40;;;;;;;;;;10516826;28;20075;-91
2023/04/04 12:15:52;;;;;;;10.10;4.07;;;;;;;;;;10522759;28;20032;-91
2023/04/04 12:20:56;;;;;;;6.57;3.27;;;;;;;;;;10516780;28;20036;-89
2023/04/04 12:25:58;;;;;;;6.57;3.53;;;;;;;;;;10548047;28;20040;-87
2023/04/04 12:31:04;;;;;;;7.90;4.27;;;;;;;;;;10548648;28;20122;-89
2023/04/04 12:36:05;;;;;;;6.77;3.37;;;;;;;;;;10548518;23;20059;-90
2023/04/04 12:41:16;;;;;;;7.43;3.30;;;;;;;;;;10523275;28;20028;-88
2023/04/04 12:46:17;;;;;;;5.47;3.40;;;;;;;;;;10529867;28;20442;-89
2023/04/04 12:51:19;;;;;;;7.27;3.03;;;;;;;;;;10523829;28;20039;-88
2023/04/04 12:56:26;;;;;;;7.43;3.80;;;;;;;;;;10522694;28;20024;-88
2023/04/04 13:01:30;;;;;;;6.83;3.47;;;;;;;;;;10528707;28;20052;-87
2023/04/04 13:06:31;;;;;;;7.13;3.40;;;;;;;;;;10529623;28;20111;-88
2023/04/04 13:11:55;;;;;;;9.33;3.70;;;;;;;;;;10526717;28;20071;-89
2023/04/04 13:17:04;;;;;;;5.73;3.13;;;;;;;;;;10555661;28;20473;-87
2023/04/04 13:22:07;;;;;;;8.37;3.30;;;;;;;;;;10567346;28;20027;-87
2023/04/04 13:27:08;;;;;;;6.20;3.20;;;;;;;;;;10565614;28;20177;-89
2023/04/04 13:32:09;;;;;;;7.47;3.17;;;;;;;;;;10572145;28;20122;-88
2023/04/04 13:37:11;;;;;;;7.90;2.83;;;;;;;;;;10571913;28;20089;-90
2023/04/04 13:42:12;;;;;;;5.30;3.07;;;;;;;;;;10562942;28;20028;-89
2023/04/04 13:47:13;;;;;;;7.07;3.20;;;;;;;;;;10588882;28;20043;-87
2023/04/04 13:52:14;;;;;;;5.57;3.00;;;;;;;;;;10565889;28;20038;-87
2023/04/04 13:57:23;;;;;;;6.10;3.23;;;;;;;;;;10579634;28;20039;-90
2023/04/04 14:02:24;;;;;;;7.47;3.70;;;;;;;;;;10574630;28;20478;-88
2023/04/04 14:07:25;;;;;;;6.43;3.53;;;;;;;;;;10571050;28;20067;-86
2023/04/04 14:12:26;;;;;;;9.53;3.30;;;;;;;;;;10561669;28;20050;-86
2023/04/04 14:17:27;;;;;;;6.27;3.07;;;;;;;;;;10567519;27;20038;-87
2023/04/04 14:22:29;;;;;;;7.33;2.87;;;;;;;;;;10573979;28;20216;-85
2023/04/04 14:27:30;;;;;;;7.07;3.20;;;;;;;;;;10558855;27;20073;-86
2023/04/04 14:32:31;;;;;;;6.93;3.53;;;;;;;;;;10573444;28;20038;-87
2023/04/04 14:37:32;;;;;;;5.50;3.60;;;;;;;;;;10572637;27;20043;-86
2023/04/04 14:42:33;;;;;;;5.63;2.97;;;;;;;;;;10559849;27;20482;-86
2023/04/04 14:47:34;;;;;;;4.43;2.63;;;;;;;;;;10585419;27;20054;-86
2023/04/04 14:52:35;;;;;;;7.07;2.97;;;;;;;;;;10571607;27;20089;-88
2023/04/04 14:57:37;;;;;;;7.83;3.43;;;;;;;;;;10578137;27;20020;-87
2023/04/04 15:02:38;;;;;;;8.00;3.80;;;;;;;;;;10557642;27;20118;-79
2023/04/04 15:07:39;;;;;;;7.97;3.57;;;;;;;;;;10572558;27;20717;-82
2023/04/04 15:12:40;;;;;;;7.93;3.97;;;;;;;;;;10575882;27;20062;-76
2023/04/04 15:17:41;;;;;;;6.63;3.07;;;;;;;;;;10563809;27;20390;-76
2023/04/04 15:22:42;;;;;;;8.23;3.10;;;;;;;;;;10585260;27;20535;-76
2023/04/04 15:27:43;;;;;;;5.77;2.87;;;;;;;;;;10591095;27;20046;-77
2023/04/04 15:32:44;;;;;;;9.00;3.77;;;;;;;;;;10579995;27;20036;-76
2023/04/04 15:37:47;;;;;;;8.00;3.27;;;;;;;;;;10574050;27;20050;-77
2023/04/04 15:42:48;;;;;;;6.77;3.63;;;;;;;;;;10570518;28;20505;-76
2023/04/04 15:47:49;;;;;;;5.17;2.97;;;;;;;;;;10570169;28;20038;-76
2023/04/04 15:52:50;;;;;;;6.27;3.70;;;;;;;;;;10569622;27;20102;-76
2023/04/04 15:57:51;;;;;;;7.83;3.47;;;;;;;;;;10567566;27;20038;-77
2023/04/04 16:02:52;;;;;;;8.23;3.63;;;;;;;;;;10589618;27;20039;-78
2023/04/04 16:07:54;;;;;;;11.20;3.37;;;;;;;;;;10573920;27;20047;-77
2023/04/04 16:12:55;;;;;;;7.57;4.07;;;;;;;;;;10578242;27;20448;-76
2023/04/04 16:17:58;;;;;;;8.83;3.63;;;;;;;;;;10573232;27;20083;-76
2023/04/04 16:22:59;;;;;;;7.20;3.50;;;;;;;;;;10574379;27;20039;-79
2023/04/04 16:28:00;;;;;;;10.47;3.60;;;;;;;;;;10571613;27;20042;-76
2023/04/04 16:33:01;;;;;;;12.60;4.50;;;;;;;;;;10566594;27;20348;-75
2023/04/04 16:38:03;;;;;;;5.17;2.90;;;;;;;;;;10579817;27;20474;-76
2023/04/04 16:43:04;;;;;;;9.23;3.47;;;;;;;;;;10567627;28;20020;-77
2023/04/04 16:48:06;;;;;;;5.27;2.93;;;;;;;;;;10552983;27;20093;-78
2023/04/04 16:53:07;;;;;;;9.57;3.97;;;;;;;;;;10566850;28;20028;-77
2023/04/04 16:58:08;;;;;;;9.57;4.47;;;;;;;;;;10577670;27;20058;-78
2023/04/04 17:03:09;;;;;;;10.07;4.30;;;;;;;;;;10569134;28;20123;-78
2023/04/04 17:08:10;;;;;;;11.03;4.47;;;;;;;;;;10575085;27;20071;-76
2023/04/04 17:13:11;;;;;;;9.70;4.60;;;;;;;;;;10571493;27;20031;-76
2023/04/04 17:18:12;;;;;;;10.47;4.77;;;;;;;;;;10578642;28;20850;-77
2023/04/04 17:23:13;;;;;;;11.10;4.33;;;;;;;;;;10567440;28;20054;-75
2023/04/04 17:28:14;;;;;;;11.30;4.90;;;;;;;;;;10575176;28;20031;-77
2023/04/04 17:33:15;;;;;;;9.90;4.07;;;;;;;;;;10564489;28;20066;-77
2023/04/04 17:38:16;;;;;;;9.70;4.57;;;;;;;;;;10590128;28;20130;-76
2023/04/04 17:43:17;;;;;;;12.17;3.83;;;;;;;;;;10570541;28;20375;-75
2023/04/04 17:48:18;;;;;;;13.63;5.40;;;;;;;;;;10573157;27;20594;-76
2023/04/04 17:53:20;;;;;;;11.40;5.27;;;;;;;;;;10574110;28;20091;-77
2023/04/04 17:58:21;;;;;;;11.40;5.60;;;;;;;;;;10590848;27;20073;-77
2023/04/04 18:03:22;;;;;;;12.33;5.67;;;;;;;;;;10575471;28;20111;-78
2023/04/04 18:08:23;;;;;;;15.67;5.90;;;;;;;;;;10583948;27;20040;-77
2023/04/04 18:13:24;;;;;;;11.50;4.97;;;;;;;;;;10576421;27;20489;-79
2023/04/04 18:18:25;;;;;;;14.27;5.30;;;;;;;;;;10578554;27;20028;-79
2023/04/04 18:23:26;;;;;;;10.63;5.60;;;;;;;;;;10583252;27;20037;-78
2023/04/04 18:28:27;;;;;;;16.47;6.97;;;;;;;;;;10580988;27;20084;-79
2023/04/04 18:33:28;;;;;;;17.00;7.60;;;;;;;;;;10574589;27;20749;-78
2023/04/04 18:38:29;;;;;;;16.50;7.10;;;;;;;;;;10577242;27;20043;-79
2023/04/04 18:43:31;;;;;;;16.00;7.00;;;;;;;;;;10576373;27;20467;-77
2023/04/04 18:48:32;;;;;;;20.20;8.10;;;;;;;;;;10580928;27;20074;-77
2023/04/04 18:53:33;;;;;;;21.57;7.83;;;;;;;;;;10582938;27;20073;-76
2023/04/04 18:58:36;;;;;;;19.33;7.83;;;;;;;;;;10572494;27;20878;-76
2023/04/04 19:03:40;;;;;;;20.43;8.77;;;;;;;;;;10587895;27;20058;-76
2023/04/04 19:08:42;;;;;;;18.73;8.13;;;;;;;;;;10550400;22;20072;-76
2023/04/04 19:13:43;;;;;;;19.67;8.97;;;;;;;;;;10521917;28;20048;-76
2023/04/04 19:18:44;;;;;;;24.63;9.17;;;;;;;;;;10512157;28;20109;-77
2023/04/04 19:23:46;;;;;;;22.03;8.80;;;;;;;;;;10518377;28;20040;-77
2023/04/04 19:28:47;;;;;;;22.00;8.93;;;;;;;;;;10489225;28;20497;-76
2023/04/04 19:33:49;;;;;;;22.83;9.17;;;;;;;;;;10509886;28;20059;-76
2023/04/04 19:38:52;;;;;;;22.37;9.23;;;;;;;;;;10491304;28;20029;-76
2023/04/04 19:43:53;;;;;;;25.83;11.17;;;;;;;;;;10492727;28;20036;-77
2023/04/04 19:48:55;;;;;;;27.93;12.87;;;;;;;;;;10505183;28;20040;-78
2023/04/04 19:53:57;;;;;;;28.53;12.73;;;;;;;;;;10491073;28;20082;-76
2023/04/04 19:58:59;;;;;;;29.30;12.33;;;;;;;;;;10493400;28;20041;-77
2023/04/04 20:04:07;;;;;;;30.90;13.20;;;;;;;;;;10500852;28;20621;-78
2023/04/04 20:09:25;;;;;;;26.13;12.73;;;;;;;;;;10500172;28;20056;-77
2023/04/04 20:14:26;;;;;;;27.73;11.83;;;;;;;;;;10506379;28;20053;-77
2023/04/04 20:19:28;;;;;;;30.63;12.30;;;;;;;;;;10488252;28;20456;-77
2023/04/04 20:24:29;;;;;;;24.13;11.67;;;;;;;;;;10501714;28;20742;-77
2023/04/04 20:29:31;;;;;;;27.87;11.80;;;;;;;;;;10459634;23;20052;-77
2023/04/04 20:34:40;;;;;;;31.63;13.17;;;;;;;;;;10443619;28;20032;-77
2023/04/04 20:39:45;;;;;;;37.50;16.93;;;;;;;;;;10461504;23;20061;-76
2023/04/04 20:44:46;;;;;;;36.95;16.15;;;;;;;;;;10546783;28;20032;-77
2023/04/04 20:49:47;;;;;;;30.20;15.93;;;;;;;;;;10543409;28;20031;-76
2023/04/04 20:54:48;;;;;;;36.20;15.53;;;;;;;;;;10548213;28;20024;-77
2023/04/04 20:59:50;;;;;;;50.03;21.07;;;;;;;;;;10556713;28;20772;-77
2023/04/04 21:04:51;;;;;;;54.13;20.53;;;;;;;;;;10564273;28;20055;-77
2023/04/04 21:09:52;;;;;;;51.73;21.70;;;;;;;;;;10566836;28;20069;-77
2023/04/04 21:14:53;;;;;;;54.80;19.43;;;;;;;;;;10542852;28;20058;-77
2023/04/04 21:19:54;;;;;;;61.73;24.10;;;;;;;;;;10604916;28;20046;-77
2023/04/04 21:24:55;;;;;;;74.97;27.57;;;;;;;;;;10601027;27;20047;-77
2023/04/04 21:29:56;;;;;;;70.00;27.53;;;;;;;;;;10611131;27;20043;-77
2023/04/04 21:34:57;;;;;;;67.23;25.10;;;;;;;;;;10611279;27;20100;-77
2023/04/04 21:39:59;;;;;;;100.40;39.87;;;;;;;;;;10598369;27;20108;-76
2023/04/04 21:45:00;;;;;;;96.33;39.33;;;;;;;;;;10614300;27;20025;-77
2023/04/04 21:50:02;;;;;;;97.40;40.50;;;;;;;;;;10598808;27;20435;-77
2023/04/04 21:55:03;;;;;;;92.47;34.70;;;;;;;;;;10603310;27;20031;-77
2023/04/04 22:00:06;;;;;;;83.37;33.63;;;;;;;;;;10598210;27;20061;-76
2023/04/04 22:05:07;;;;;;;78.30;31.13;;;;;;;;;;10616671;27;20041;-77
2023/04/04 22:10:11;;;;;;;70.27;26.80;;;;;;;;;;10620462;27;20027;-76
2023/04/04 22:15:12;;;;;;;47.37;18.83;;;;;;;;;;10603104;27;20062;-75
2023/04/04 22:20:14;;;;;;;39.33;14.83;;;;;;;;;;10608297;27;20035;-77
2023/04/04 22:25:15;;;;;;;22.00;10.23;;;;;;;;;;10607510;27;20386;-78
2023/04/04 22:30:16;;;;;;;19.90;9.10;;;;;;;;;;10589836;27;20039;-76
2023/04/04 22:35:17;;;;;;;15.73;7.80;;;;;;;;;;10609174;27;20025;-76
2023/04/04 22:40:18;;;;;;;16.97;7.20;;;;;;;;;;10598982;27;20056;-77
2023/04/04 22:45:19;;;;;;;15.47;7.17;;;;;;;;;;10580482;27;20019;-77
2023/04/04 22:50:25;;;;;;;19.43;8.60;;;;;;;;;;10609445;27;20039;-78
2023/04/04 22:55:26;;;;;;;32.72;12.50;;;;;;;;;;10605330;27;20130;-76
2023/04/04 23:00:27;;;;;;;23.83;11.07;;;;;;;;;;10588985;27;20032;-77
2023/04/04 23:05:29;;;;;;;21.60;9.30;;;;;;;;;;10613672;27;20038;-76
2023/04/04 23:10:30;;;;;;;18.80;7.53;;;;;;;;;;10586906;27;20031;-78
2023/04/04 23:15:34;;;;;;;14.73;8.03;;;;;;;;;;10577205;27;20027;-78
2023/04/04 23:20:36;;;;;;;15.93;6.73;;;;;;;;;;10602779;27;20031;-77
2023/04/04 23:25:37;;;;;;;11.83;5.90;;;;;;;;;;10601562;27;20023;-77
2023/04/04 23:30:38;;;;;;;17.43;7.03;;;;;;;;;;10588298;27;20509;-77
2023/04/04 23:35:39;;;;;;;13.47;6.43;;;;;;;;;;10589933;27;20031;-78
2023/04/04 23:40:40;;;;;;;17.07;7.03;;;;;;;;;;10601598;27;20083;-77
2023/04/04 23:45:41;;;;;;;12.03;6.70;;;;;;;;;;10591099;27;20042;-77
2023/04/04 23:50:43;;;;;;;12.93;6.33;;;;;;;;;;10613291;27;20394;-77
2023/04/04 23:55:44;;;;;;;13.70;5.80;;;;;;;;;;10614163;27;20035;-77
